createdAt,value
2022-11-20T00:03:37.313Z,72.61
2022-11-20T00:08:43.893Z,75.25
2022-11-20T00:13:48.047Z,75.28
2022-11-20T00:18:53.421Z,74.60
2022-11-20T00:23:59.497Z,74.70
2022-11-20T00:29:03.400Z,74.63
2022-11-20T00:34:07.976Z,75.97
2022-11-20T00:39:11.296Z,76.98
2022-11-20T00:44:14.481Z,76.96
2022-11-20T00:49:19.498Z,74.48
2022-11-20T00:54:27.540Z,77.07
2022-11-20T00:59:30.828Z,75.24
2022-11-20T01:04:35.435Z,76.84
2022-11-20T01:09:38.681Z,76.05
2022-11-20T01:14:41.966Z,73.45
2022-11-20T01:19:46.606Z,73.58
2022-11-20T01:24:49.820Z,76.21
2022-11-20T01:29:55.760Z,75.84
2022-11-20T01:35:10.668Z,75.98
2022-11-20T01:40:16.335Z,75.50
2022-11-20T01:45:38.300Z,75.08
2022-11-20T01:50:44.444Z,68.92
2022-11-20T01:55:52.817Z,69.01
2022-11-20T02:01:00.680Z,69.30
2022-11-20T02:06:09.996Z,69.46
2022-11-20T02:11:14.628Z,68.63
2022-11-20T02:16:23.635Z,68.68
2022-11-20T02:21:38.077Z,67.14
2022-11-20T02:26:50.263Z,67.72
2022-11-20T02:31:57.328Z,65.38
2022-11-20T02:37:01.595Z,64.76
2022-11-20T02:42:06.295Z,62.97
2022-11-20T02:47:10.092Z,65.23
2022-11-20T02:52:15.603Z,68.37
2022-11-20T02:57:20.125Z,67.48
2022-11-20T03:02:23.341Z,67.62
2022-11-20T03:07:35.248Z,66.91
2022-11-20T03:12:39.920Z,72.93
2022-11-20T03:17:43.163Z,71.53
2022-11-20T03:22:46.402Z,72.14
2022-11-20T03:27:51.068Z,69.60
2022-11-20T03:32:55.015Z,71.60
2022-11-20T03:38:00.742Z,69.66
2022-11-20T03:43:05.298Z,70.42
2022-11-20T03:48:10.707Z,66.02
2022-11-20T03:53:13.933Z,63.53
2022-11-20T03:58:19.137Z,64.16
2022-11-20T04:03:22.545Z,66.42
2022-11-20T04:08:25.829Z,63.00
2022-11-20T04:13:30.378Z,63.65
2022-11-20T04:18:33.580Z,64.15
2022-11-20T04:23:36.811Z,63.70
2022-11-20T04:28:41.769Z,65.12
2022-11-20T04:33:45.319Z,65.16
2022-11-20T04:38:53.874Z,63.91
2022-11-20T04:44:04.222Z,63.31
2022-11-20T04:49:08.310Z,63.90
2022-11-20T04:54:13.386Z,61.52
2022-11-20T04:59:18.306Z,65.05
2022-11-20T05:04:21.726Z,62.92
2022-11-20T05:09:27.195Z,65.67
2022-11-20T05:14:31.909Z,65.69
2022-11-20T05:19:35.264Z,66.58
2022-11-20T05:24:38.481Z,69.30
2022-11-20T05:29:46.225Z,68.82
2022-11-20T05:34:49.478Z,68.71
2022-11-20T05:39:52.830Z,68.12
2022-11-20T05:44:57.608Z,67.99
2022-11-20T05:50:00.857Z,67.07
2022-11-20T05:55:04.120Z,68.59
2022-11-20T06:00:09.826Z,67.90
2022-11-20T06:05:15.429Z,66.21
2022-11-20T06:10:18.695Z,66.89
2022-11-20T06:15:25.624Z,65.78
2022-11-20T06:20:31.043Z,66.39
2022-11-20T06:25:34.307Z,66.48
2022-11-20T06:30:46.601Z,66.14
2022-11-20T06:35:58.446Z,65.29
2022-11-20T06:41:06.616Z,64.88
2022-11-20T06:46:14.476Z,66.56
2022-11-20T06:51:20.338Z,67.17
2022-11-20T06:56:23.570Z,67.85
2022-11-20T07:01:30.472Z,66.70
2022-11-20T07:06:33.855Z,69.18
2022-11-20T07:11:42.089Z,69.93
2022-11-20T07:16:46.703Z,79.35
2022-11-20T07:21:50.003Z,68.24
2022-11-20T07:26:53.186Z,70.45
2022-11-20T07:31:57.791Z,69.67
2022-11-20T07:37:07.546Z,68.81
2022-11-20T07:42:13.905Z,70.59
2022-11-20T07:47:18.498Z,68.09
2022-11-20T07:52:21.809Z,71.33
2022-11-20T07:57:28.304Z,68.58
2022-11-20T08:02:33.318Z,68.94
2022-11-20T08:07:39.956Z,67.07
2022-11-20T08:13:04.160Z,63.69
2022-11-20T08:23:34.938Z,63.76
2022-11-20T08:28:38.495Z,66.83
2022-11-20T08:33:45.267Z,69.09
2022-11-20T08:38:49.461Z,69.52
2022-11-20T08:43:53.877Z,65.79
2022-11-20T08:48:58.474Z,68.39
2022-11-20T08:54:02.132Z,66.35
2022-11-20T08:59:43.410Z,66.76
2022-11-20T09:04:32.395Z,65.09
2022-11-20T09:09:38.016Z,67.32
2022-11-20T09:14:43.450Z,66.19
2022-11-20T09:19:48.063Z,64.68
2022-11-20T09:24:51.342Z,64.00
2022-11-20T09:29:56.836Z,64.10
2022-11-20T09:40:20.994Z,65.22
2022-11-20T09:45:33.003Z,65.95
2022-11-20T09:50:41.949Z,67.66
2022-11-20T09:55:45.376Z,64.88
2022-11-20T10:00:57.504Z,65.00
2022-11-20T10:06:05.129Z,65.33
2022-11-20T10:11:16.243Z,63.86
2022-11-20T10:16:31.339Z,64.80
2022-11-20T10:21:44.681Z,64.36
2022-11-20T10:26:55.220Z,62.89
2022-11-20T10:32:02.370Z,62.96
2022-11-20T10:37:14.971Z,64.12
2022-11-20T10:42:27.771Z,63.34
2022-11-20T10:47:32.743Z,67.00
2022-11-20T10:52:44.524Z,69.25
2022-11-20T10:57:54.861Z,70.86
2022-11-20T11:03:03.844Z,69.28
2022-11-20T11:08:14.366Z,63.86
2022-11-20T11:13:24.407Z,66.44
2022-11-20T11:18:28.614Z,65.89
2022-11-20T11:23:36.239Z,65.29
2022-11-20T11:28:40.221Z,65.24
2022-11-20T11:33:43.538Z,70.93
2022-11-20T11:38:53.791Z,69.09
2022-11-20T11:44:21.309Z,66.17
2022-11-20T11:49:26.043Z,62.84
2022-11-20T11:54:35.583Z,62.69
2022-11-20T11:59:46.910Z,63.94
2022-11-20T12:04:57.107Z,63.81
2022-11-20T12:10:03.446Z,63.74
2022-11-20T12:15:12.375Z,61.51
2022-11-20T12:20:18.090Z,65.35
2022-11-20T12:25:26.346Z,58.49
2022-11-20T12:30:36.428Z,65.46
2022-11-20T12:35:54.736Z,66.11
2022-11-20T12:41:08.739Z,60.08
2022-11-20T12:46:21.864Z,56.82
2022-11-20T12:51:37.882Z,57.96
2022-11-20T12:56:46.596Z,57.89
2022-11-20T13:01:54.110Z,57.31
2022-11-20T13:06:58.656Z,59.65
2022-11-20T13:12:08.145Z,60.74
2022-11-20T13:17:17.518Z,61.15
2022-11-20T13:22:26.474Z,60.60
2022-11-20T13:27:34.432Z,60.37
2022-11-20T13:32:37.719Z,59.64
2022-11-20T13:37:41.038Z,62.59
2022-11-20T13:42:56.591Z,60.05
2022-11-20T13:48:03.834Z,58.49
2022-11-20T13:53:15.647Z,59.95
2022-11-20T13:58:33.857Z,57.85
2022-11-20T14:04:04.685Z,66.05
2022-11-20T14:09:03.229Z,60.37
2022-11-20T14:14:17.263Z,64.01
2022-11-20T14:19:29.386Z,61.58
2022-11-20T14:24:32.708Z,65.54
2022-11-20T14:29:41.666Z,64.43
2022-11-20T14:34:47.574Z,65.07
2022-11-20T14:39:52.816Z,63.04
2022-11-20T14:45:01.733Z,63.41
2022-11-20T14:50:15.342Z,64.24
2022-11-20T14:55:27.067Z,61.96
2022-11-20T15:00:32.783Z,61.34
2022-11-20T15:05:57.021Z,61.64
2022-11-20T15:11:00.857Z,62.37
2022-11-20T15:16:10.176Z,63.86
2022-11-20T15:21:15.015Z,65.03
2022-11-20T15:26:22.965Z,66.60
2022-11-20T15:31:27.622Z,63.09
2022-11-20T15:36:30.854Z,60.68
2022-11-20T15:41:34.119Z,60.64
2022-11-20T15:46:43.271Z,59.65
2022-11-20T15:51:50.712Z,60.07
2022-11-20T15:56:54.515Z,61.09
2022-11-20T16:01:59.235Z,59.06
2022-11-20T16:07:02.624Z,61.23
2022-11-20T16:12:30.089Z,72.57
2022-11-20T16:17:44.344Z,59.57
2022-11-20T16:22:47.573Z,62.03
2022-11-20T16:27:55.563Z,59.91
2022-11-20T16:33:00.287Z,60.45
2022-11-20T16:38:03.875Z,60.41
2022-11-20T16:43:09.646Z,63.35
2022-11-20T16:48:17.689Z,62.14
2022-11-20T16:53:22.068Z,62.04
2022-11-20T16:58:25.353Z,69.41
2022-11-20T17:03:29.964Z,59.69
2022-11-20T17:08:33.241Z,58.75
2022-11-20T17:13:40.032Z,60.22
2022-11-20T17:18:47.762Z,60.25
2022-11-20T17:23:53.930Z,56.94
2022-11-20T17:28:59.132Z,55.78
2022-11-20T17:34:03.769Z,54.66
2022-11-20T17:39:07.009Z,58.87
2022-11-20T17:44:13.498Z,65.67
2022-11-20T17:49:22.942Z,55.58
2022-11-20T17:54:27.376Z,54.10
2022-11-20T17:59:30.647Z,56.08
2022-11-20T18:04:35.374Z,63.74
2022-11-20T18:09:38.663Z,64.79
2022-11-20T18:14:44.176Z,61.45
2022-11-20T18:20:14.237Z,62.05
2022-11-20T18:25:14.264Z,65.38
2022-11-20T18:30:17.734Z,57.77
2022-11-20T18:35:22.306Z,60.62
2022-11-20T18:40:27.896Z,63.63
2022-11-20T18:45:31.325Z,65.77
2022-11-20T18:50:35.966Z,68.57
2022-11-20T18:55:39.179Z,64.62
2022-11-20T19:00:42.421Z,65.25
2022-11-20T19:05:47.188Z,65.13
2022-11-20T19:10:53.562Z,67.40
2022-11-20T19:16:02.430Z,63.55
2022-11-20T19:21:10.010Z,62.38
2022-11-20T19:26:16.554Z,64.37
2022-11-20T19:31:24.457Z,66.31
2022-11-20T19:36:33.273Z,66.86
2022-11-20T19:41:38.248Z,66.34
2022-11-20T19:46:44.877Z,68.38
2022-11-20T19:51:54.219Z,67.63
2022-11-20T19:56:57.535Z,66.97
2022-11-20T20:02:02.158Z,67.47
2022-11-20T20:07:07.390Z,67.07
2022-11-20T20:12:10.764Z,68.94
2022-11-20T20:17:14.086Z,63.80
2022-11-20T20:22:18.684Z,63.29
2022-11-20T20:27:21.966Z,66.97
2022-11-20T20:32:31.522Z,66.35
2022-11-20T20:37:36.142Z,67.77
2022-11-20T20:42:39.417Z,68.71
2022-11-20T20:47:45.305Z,72.99
2022-11-20T20:52:49.973Z,73.29
2022-11-20T20:57:53.730Z,73.37
2022-11-20T21:02:57.006Z,72.50
2022-11-20T21:08:19.006Z,73.15
2022-11-20T21:13:22.649Z,72.61
2022-11-20T21:18:26.871Z,73.46
2022-11-20T21:23:31.530Z,73.65
2022-11-20T21:28:35.863Z,75.27
2022-11-20T21:33:40.599Z,74.70
2022-11-20T21:38:45.669Z,74.25
2022-11-20T21:44:09.194Z,75.00
2022-11-20T21:49:14.658Z,74.06
2022-11-20T21:54:19.220Z,72.78
2022-11-20T21:59:22.870Z,74.61
2022-11-20T22:04:26.429Z,73.62
2022-11-20T22:09:31.220Z,73.72
2022-11-20T22:14:34.525Z,75.41
2022-11-20T22:19:37.820Z,78.90
2022-11-20T22:24:42.384Z,80.82
2022-11-20T22:29:45.583Z,81.72
2022-11-20T22:34:48.793Z,77.97
2022-11-20T22:39:53.447Z,81.48
2022-11-20T22:44:56.712Z,81.86
2022-11-20T22:50:02.100Z,82.65
2022-11-20T22:55:14.951Z,80.80
2022-11-20T23:00:21.576Z,86.32
2022-11-20T23:05:24.775Z,85.27
2022-11-20T23:10:34.361Z,90.68
2022-11-20T23:15:37.578Z,87.84
2022-11-20T23:20:43.245Z,87.87
2022-11-20T23:25:47.795Z,90.05
2022-11-20T23:30:51.022Z,90.45
2022-11-20T23:35:54.472Z,88.90
2022-11-20T23:41:04.062Z,89.64
2022-11-20T23:46:15.216Z,90.00
2022-11-20T23:51:22.304Z,83.41
2022-11-20T23:56:26.835Z,82.70
